Time;durP1;ratioP1;P1;durP2;ratioP2;P2;SDS_P1;SDS_P2;PMS_P1;PMS_P2;Temp;Humidity;BMP_temperature;BMP_pressure;BME280_temperature;BME280_humidity;BME280_pressure;Samples;Min_cycle;Max_cycle;Signal;HPM_P1;HPM_P2
2022/11/01 00:00:19;;;;;;;59.50;36.10;;;;;;;6.55;100.00;99712.74;100592;1333;24387;-35
2022/11/01 00:02:45;;;;;;;75.60;39.10;;;;;;;6.62;100.00;99716.64;100620;1341;23128;-35
2022/11/01 00:05:10;;;;;;;58.50;32.20;;;;;;;6.70;100.00;99713.55;100534;1340;23129;-35
2022/11/01 00:07:36;;;;;;;83.40;41.30;;;;;;;6.77;100.00;99718.46;100604;1341;23023;-33
2022/11/01 00:10:02;;;;;;;76.00;40.10;;;;;;;6.84;100.00;99723.55;100600;1333;22889;-33
2022/11/01 00:12:28;;;;;;;;;;;;;;;6.90;100.00;99722.20;100612;1339;23054;-35
2022/11/01 00:14:54;;;;;;;75.60;37.00;;;;;;;6.96;100.00;99724.02;100582;1333;24351;-33
2022/11/01 00:17:19;;;;;;;75.50;41.20;;;;;;;7.02;100.00;99716.83;100628;1340;22627;-32
2022/11/01 00:19:46;;;;;;;86.70;44.60;;;;;;;7.07;100.00;99710.12;100581;1341;23090;-33
2022/11/01 00:22:11;;;;;;;92.80;44.60;;;;;;;7.10;100.00;99706.19;100628;1341;25614;-34
2022/11/01 00:24:37;;;;;;;58.80;35.40;;;;;;;7.12;100.00;99705.05;100605;1341;24454;-36
2022/11/01 00:27:02;;;;;;;82.30;41.50;;;;;;;7.19;100.00;99703.38;100623;1341;24228;-34
2022/11/01 00:29:28;;;;;;;76.20;36.70;;;;;;;7.29;100.00;99710.33;100637;1341;22752;-36
2022/11/01 00:31:53;;;;;;;70.40;38.20;;;;;;;7.36;100.00;99715.92;100526;1341;24451;-35
2022/11/01 00:34:19;;;;;;;83.80;40.70;;;;;;;7.41;100.00;99716.46;100573;1333;23242;-33
2022/11/01 00:36:44;;;;;;;89.90;42.00;;;;;;;7.44;100.00;99714.23;100580;1340;22638;-36
2022/11/01 00:39:12;;;;;;;79.70;36.30;;;;;;;7.47;100.00;99710.84;100623;1335;22764;-36
2022/11/01 00:41:37;;;;;;;58.60;29.70;;;;;;;7.52;100.00;99707.84;100635;1334;23252;-36
2022/11/01 00:44:03;;;;;;;60.60;36.90;;;;;;;7.55;100.00;99708.22;100514;1341;22888;-34
2022/11/01 00:46:29;;;;;;;62.70;31.70;;;;;;;7.56;100.00;99708.48;100573;1333;23107;-35
2022/11/01 00:48:55;;;;;;;81.00;35.30;;;;;;;7.56;100.00;99704.67;100642;1333;22889;-36
2022/11/01 00:51:21;;;;;;;49.10;29.40;;;;;;;7.55;100.00;99696.70;100621;1340;22942;-35
2022/11/01 00:53:46;;;;;;;57.70;29.00;;;;;;;7.54;100.00;99690.15;100628;1332;24353;-33
2022/11/01 00:56:12;;;;;;;71.10;33.70;;;;;;;7.54;100.00;99684.84;100601;1341;24383;-38
2022/11/01 00:58:37;;;;;;;29.20;16.00;;;;;;;7.54;100.00;99685.88;100573;1341;23092;-35
2022/11/01 01:01:03;;;;;;;59.00;28.80;;;;;;;7.54;100.00;99686.62;100534;1341;23208;-33
2022/11/01 01:03:28;;;;;;;48.40;28.70;;;;;;;7.52;100.00;99685.41;100567;1341;22753;-33
2022/11/01 01:05:54;;;;;;;45.40;25.40;;;;;;;7.49;100.00;99687.45;100656;1333;24384;-34
2022/11/01 01:08:20;;;;;;;76.80;35.90;;;;;;;7.47;100.00;99688.69;100626;1340;24383;-36
2022/11/01 01:10:45;;;;;;;61.10;34.10;;;;;;;7.44;100.00;99688.33;100585;1334;24424;-36
2022/11/01 01:13:11;;;;;;;79.20;42.50;;;;;;;7.41;100.00;99681.25;100638;1341;23108;-33
2022/11/01 01:15:37;;;;;;;67.50;38.50;;;;;;;7.40;100.00;99678.35;100604;1341;24420;-36
2022/11/01 01:18:03;;;;;;;73.00;40.40;;;;;;;7.40;100.00;99674.54;100617;1340;24424;-39
2022/11/01 01:20:29;;;;;;;81.90;39.30;;;;;;;7.41;100.00;99667.55;100659;1333;22758;-33
2022/11/01 01:22:54;;;;;;;57.40;34.20;;;;;;;7.41;100.00;99663.20;100653;1333;24381;-32
2022/11/01 01:25:20;;;;;;;80.80;43.10;;;;;;;7.41;100.00;99658.02;100563;1333;24373;-35
2022/11/01 01:27:45;;;;;;;67.60;36.30;;;;;;;7.43;100.00;99656.27;100585;1341;22523;-32
2022/11/01 01:30:11;;;;;;;52.50;29.70;;;;;;;7.42;100.00;99655.86;100579;1333;25031;-35
2022/11/01 01:32:37;;;;;;;70.40;40.00;;;;;;;7.39;100.00;99654.50;100593;1341;24295;-33
2022/11/01 01:35:03;;;;;;;80.70;47.80;;;;;;;7.42;100.00;99654.59;100600;1341;22502;-36
2022/11/01 01:37:29;;;;;;;66.30;39.80;;;;;;;7.44;100.00;99654.73;100620;1341;24498;-36
2022/11/01 01:39:54;;;;;;;62.60;33.60;;;;;;;7.44;100.00;99650.09;100541;1340;22817;-36
2022/11/01 01:42:27;;;;;;;83.00;39.00;;;;;;;7.43;100.00;99647.32;100562;1333;26461;-34
2022/11/01 01:44:54;;;;;;;53.50;29.80;;;;;;;7.46;100.00;99652.08;100563;1333;23206;-34
2022/11/01 01:47:30;;;;;;;58.50;30.00;;;;;;;7.50;100.00;99657.63;100565;1333;22718;-33
2022/11/01 01:50:01;;;;;;;51.90;30.20;;;;;;;7.51;100.00;99666.64;100553;1334;23350;-36
2022/11/01 01:52:29;;;;;;;59.40;31.50;;;;;;;7.51;100.00;99665.45;100555;1333;22758;-37
2022/11/01 01:54:54;;;;;;;60.30;28.80;;;;;;;7.53;100.00;99659.33;100742;1340;22631;-33
2022/11/01 01:57:20;;;;;;;76.50;32.40;;;;;;;7.57;100.00;99657.08;100622;1335;23217;-35
2022/11/01 01:59:45;;;;;;;62.30;33.30;;;;;;;7.61;100.00;99656.36;100556;1340;24357;-36
2022/11/01 02:02:11;;;;;;;66.00;33.70;;;;;;;7.66;100.00;99659.39;100595;1341;24283;-35
2022/11/01 02:04:40;;;;;;;73.40;34.00;;;;;;;7.69;100.00;99655.67;100483;1336;22716;-33
2022/11/01 02:07:06;;;;;;;59.20;31.70;;;;;;;7.70;100.00;99656.44;100643;1340;23922;-37
2022/11/01 02:09:32;;;;;;;71.70;35.20;;;;;;;7.70;100.00;99660.55;100550;1341;22480;-36
2022/11/01 02:11:57;;;;;;;76.70;36.60;;;;;;;7.72;100.00;99663.48;100612;1341;22759;-33
2022/11/01 02:14:23;;;;;;;74.30;37.10;;;;;;;7.73;100.00;99670.73;100612;1340;24302;-35
2022/11/01 02:16:53;;;;;;;60.10;32.60;;;;;;;7.73;100.00;99678.55;100484;1341;23037;-35
2022/11/01 02:19:34;;;;;;;88.70;39.90;;;;;;;7.70;100.00;99676.19;100587;1333;24361;-33
2022/11/01 02:22:04;;;;;;;52.40;29.20;;;;;;;7.65;100.00;99667.14;100622;1340;24486;-33
2022/11/01 02:24:33;;;;;;;;;;;;;;;7.61;100.00;99665.09;100632;1333;24225;-42
2022/11/01 02:26:59;;;;;;;53.20;30.50;;;;;;;7.57;100.00;99661.27;100608;1340;22764;-33
2022/11/01 02:29:45;;;;;;;49.20;29.00;;;;;;;7.52;100.00;99658.65;100623;1333;23093;-35
2022/11/01 02:32:16;;;;;;;53.40;30.10;;;;;;;7.47;100.00;99660.92;100618;1340;24421;-37
2022/11/01 02:34:43;;;;;;;39.10;22.70;;;;;;;7.42;100.00;99664.68;100634;1333;22751;-32
2022/11/01 02:37:14;;;;;;;60.50;31.50;;;;;;;7.38;100.00;99667.86;100584;1333;23186;-33
2022/11/01 02:39:42;;;;;;;29.80;17.50;;;;;;;7.35;100.00;99666.53;100589;1326;22726;-35
2022/11/01 02:42:13;;;;;;;66.20;30.10;;;;;;;7.30;100.00;99662.13;100517;1339;22875;-35
2022/11/01 02:44:42;;;;;;;55.70;24.70;;;;;;;7.21;100.00;99658.80;100634;1341;24245;-35
2022/11/01 02:47:10;;;;;;;58.20;24.80;;;;;;;7.09;100.00;99644.13;100599;1333;23389;-35
2022/11/01 02:49:39;;;;;;;72.30;32.80;;;;;;;7.00;100.00;99632.98;100559;1341;23252;-35
2022/11/01 02:52:09;;;;;;;36.70;26.40;;;;;;;6.97;100.00;99626.70;100650;1340;24503;-35
2022/11/01 02:54:39;;;;;;;74.10;33.20;;;;;;;6.96;100.00;99627.52;100625;1333;24376;-34
2022/11/01 02:57:20;;;;;;;68.80;39.00;;;;;;;6.96;100.00;99624.92;100677;1340;24140;-35
2022/11/01 02:59:47;;;;;;;71.40;35.90;;;;;;;7.01;100.00;99629.84;100598;1341;24379;-36
2022/11/01 03:02:18;;;;;;;77.10;36.90;;;;;;;7.08;100.00;99638.25;100627;1340;24386;-32
2022/11/01 03:04:43;;;;;;;53.60;28.40;;;;;;;7.12;100.00;99645.76;100600;1341;23883;-35
2022/11/01 03:07:09;;;;;;;77.20;33.50;;;;;;;7.12;100.00;99645.55;100670;1341;23119;-33
2022/11/01 03:09:35;;;;;;;76.60;37.50;;;;;;;7.13;100.00;99649.63;100579;1329;23106;-33
2022/11/01 03:12:03;;;;;;;48.80;27.90;;;;;;;7.10;100.00;99660.09;100614;1341;23262;-35
2022/11/01 03:14:36;;;;;;;86.30;30.40;;;;;;;7.09;100.00;99660.62;100641;1327;22763;-35
2022/11/01 03:17:07;;;;;;;69.90;34.50;;;;;;;7.08;100.00;99661.68;100635;1340;25448;-33
2022/11/01 03:19:38;;;;;;;63.70;29.70;;;;;;;7.08;100.00;99667.29;100591;1340;22525;-36
2022/11/01 03:22:14;;;;;;;78.70;35.70;;;;;;;7.07;100.00;99669.81;100547;1339;23203;-36
2022/11/01 03:24:45;;;;;;;73.60;29.00;;;;;;;7.08;100.00;99671.30;100562;1340;22768;-36
2022/11/01 03:27:14;;;;;;;70.20;31.50;;;;;;;7.09;100.00;99666.96;100614;1340;22535;-36
2022/11/01 03:29:41;;;;;;;90.10;33.10;;;;;;;7.10;100.00;99665.45;100622;1326;23233;-36
2022/11/01 03:32:06;;;;;;;65.80;29.30;;;;;;;7.09;100.00;99664.98;100698;1341;24382;-36
2022/11/01 03:34:35;;;;;;;90.80;36.60;;;;;;;7.07;100.00;99660.61;100564;1327;22519;-36
2022/11/01 03:37:03;;;;;;;109.70;34.80;;;;;;;7.05;100.00;99656.91;100126;1340;573283;-34
2022/11/01 03:39:35;;;;;;;74.50;35.20;;;;;;;7.04;100.00;99654.30;100657;1333;23103;-34
2022/11/01 03:42:02;;;;;;;76.90;28.30;;;;;;;7.02;100.00;99655.77;100662;1341;22861;-34
2022/11/01 03:44:33;;;;;;;61.90;25.50;;;;;;;6.98;100.00;99655.27;100566;1330;23232;-38
2022/11/01 03:46:58;;;;;;;65.00;27.70;;;;;;;6.96;100.00;99646.80;100617;1341;23220;-33
2022/11/01 03:49:24;;;;;;;56.90;29.40;;;;;;;6.94;100.00;99645.99;100572;1340;23103;-33
2022/11/01 03:51:50;;;;;;;66.40;26.30;;;;;;;6.91;100.00;99640.26;100536;1340;22747;-32
2022/11/01 03:54:16;;;;;;;52.50;25.70;;;;;;;6.86;100.00;99637.55;100585;1341;25232;-36
2022/11/01 03:56:41;;;;;;;47.80;25.30;;;;;;;6.82;100.00;99638.70;100546;1341;22513;-33
2022/11/01 03:59:07;;;;;;;39.10;21.00;;;;;;;6.78;100.00;99640.38;100506;1336;23109;-35
2022/11/01 04:01:33;;;;;;;31.00;18.70;;;;;;;6.76;100.00;99640.95;100682;1334;22749;-33
2022/11/01 04:03:58;;;;;;;46.60;24.70;;;;;;;6.72;100.00;99642.98;100570;1324;22507;-33
2022/11/01 04:06:24;;;;;;;43.80;22.30;;;;;;;6.69;100.00;99642.59;100729;1332;22879;-38
2022/11/01 04:08:50;;;;;;;41.80;20.50;;;;;;;6.69;100.00;99637.98;100581;1333;24383;-32
2022/11/01 04:11:15;;;;;;;46.10;22.70;;;;;;;6.70;100.00;99639.14;100599;1334;22742;-32
2022/11/01 04:13:42;;;;;;;43.60;21.40;;;;;;;6.71;100.00;99636.71;100578;1338;23101;-33
2022/11/01 04:21:09;;;;;;;42.30;17.40;;;;;;;6.70;100.00;99637.30;100542;1340;23106;-33
2022/11/01 04:23:35;;;;;;;30.80;16.70;;;;;;;6.72;100.00;99641.08;100648;1329;23092;-36
2022/11/01 04:26:01;;;;;;;41.40;20.60;;;;;;;6.72;100.00;99637.28;100594;1333;22778;-33
2022/11/01 04:28:26;;;;;;;32.20;14.80;;;;;;;6.70;100.00;99638.08;100634;1341;23012;-35
2022/11/01 04:30:52;;;;;;;39.20;17.40;;;;;;;6.68;100.00;99634.34;100616;1340;24959;-33
2022/11/01 04:33:18;;;;;;;34.20;15.90;;;;;;;6.67;100.00;99629.14;100556;1323;25331;-36
2022/11/01 04:35:43;;;;;;;30.30;15.80;;;;;;;6.66;100.00;99625.34;100447;1341;22751;-35
2022/11/01 04:38:10;;;;;;;29.60;14.40;;;;;;;6.66;100.00;99626.95;100583;1341;22893;-36
2022/11/01 04:40:35;;;;;;;34.90;15.40;;;;;;;6.67;100.00;99620.43;100547;1319;24305;-34
2022/11/01 04:43:01;;;;;;;28.60;14.50;;;;;;;6.68;100.00;99622.49;100585;1341;22520;-36
2022/11/01 04:45:27;;;;;;;21.60;12.40;;;;;;;6.68;100.00;99623.13;100572;1334;24898;-36
2022/11/01 04:47:59;;;;;;;28.40;15.10;;;;;;;6.68;100.00;99620.89;100624;1334;22522;-36
2022/11/01 04:50:25;;;;;;;21.50;12.50;;;;;;;6.67;100.00;99619.15;100552;1340;22889;-34
2022/11/01 04:52:51;;;;;;;23.60;11.00;;;;;;;6.67;100.00;99611.72;100599;1333;22748;-34
2022/11/01 04:55:18;;;;;;;23.30;10.30;;;;;;;6.66;100.00;99617.29;100639;1333;23013;-33
2022/11/01 04:57:43;;;;;;;32.40;15.90;;;;;;;6.65;100.00;99616.52;100731;1334;25171;-34
2022/11/01 05:00:10;;;;;;;24.00;14.10;;;;;;;6.62;100.00;99612.45;100604;1333;25054;-36
2022/11/01 05:02:36;;;;;;;26.20;11.40;;;;;;;6.59;100.00;99608.31;100580;1333;22777;-33
2022/11/01 05:05:03;;;;;;;19.20;13.70;;;;;;;6.55;100.00;99603.38;100584;1341;22595;-32
2022/11/01 05:07:28;;;;;;;29.00;11.70;;;;;;;6.53;100.00;99602.88;100531;1331;24416;-36
2022/11/01 05:09:54;;;;;;;24.20;13.10;;;;;;;6.52;100.00;99602.96;100621;1327;22889;-33
2022/11/01 05:12:19;;;;;;;32.30;14.10;;;;;;;6.53;100.00;99603.77;100510;1336;24853;-35
2022/11/01 05:14:45;;;;;;;14.60;8.30;;;;;;;6.54;100.00;99606.64;100604;1333;22849;-36
2022/11/01 05:17:10;;;;;;;23.40;12.00;;;;;;;6.55;100.00;99608.33;100662;1334;22762;-33
2022/11/01 05:19:36;;;;;;;18.40;10.60;;;;;;;6.56;100.00;99609.84;100569;1340;22864;-33
2022/11/01 05:22:03;;;;;;;17.20;7.70;;;;;;;6.56;100.00;99613.08;100594;1330;23070;-36
2022/11/01 05:24:28;;;;;;;18.00;9.70;;;;;;;6.59;100.00;99616.71;100465;1335;23102;-35
2022/11/01 05:26:54;;;;;;;17.90;9.30;;;;;;;6.62;100.00;99621.49;100551;1341;24018;-35
2022/11/01 05:29:19;;;;;;;22.70;11.50;;;;;;;6.63;100.00;99621.19;100629;1333;23530;-33
2022/11/01 05:31:45;;;;;;;20.80;11.30;;;;;;;6.64;100.00;99622.76;100617;1339;22642;-34
2022/11/01 05:34:10;;;;;;;20.70;8.50;;;;;;;6.63;100.00;99628.14;100595;1333;23017;-35
2022/11/01 05:36:36;;;;;;;16.80;9.30;;;;;;;6.64;100.00;99629.50;100569;1333;22569;-35
2022/11/01 05:39:01;;;;;;;15.30;8.00;;;;;;;6.64;100.00;99625.86;100601;1340;25384;-35
2022/11/01 05:41:27;;;;;;;16.20;8.00;;;;;;;6.65;100.00;99624.85;100612;1340;25525;-32
2022/11/01 05:43:52;;;;;;;20.40;8.60;;;;;;;6.68;100.00;99629.20;100642;1341;24457;-33
2022/11/01 05:46:18;;;;;;;16.20;8.00;;;;;;;6.68;100.00;99632.20;100571;1341;23228;-35
2022/11/01 05:48:43;;;;;;;17.10;9.20;;;;;;;6.69;100.00;99635.02;100612;1341;22857;-35
2022/11/01 05:51:09;;;;;;;14.40;8.50;;;;;;;6.70;100.00;99638.27;100579;1341;23220;-34
2022/11/01 05:53:35;;;;;;;20.20;9.70;;;;;;;6.69;100.00;99643.69;100665;1341;24562;-35
2022/11/01 05:56:00;;;;;;;13.90;8.00;;;;;;;6.69;100.00;99639.81;100607;1341;25113;-37
2022/11/01 05:58:26;;;;;;;25.10;10.70;;;;;;;6.69;100.00;99640.88;100521;1333;22900;-37
2022/11/01 06:00:56;;;;;;;23.40;8.30;;;;;;;6.69;100.00;99641.72;100614;1339;24352;-36
2022/11/01 06:03:21;;;;;;;22.00;9.20;;;;;;;6.69;100.00;99642.79;100618;1327;24396;-33
2022/11/01 06:05:47;;;;;;;14.60;8.40;;;;;;;6.69;100.00;99639.95;100539;1341;22740;-35
2022/11/01 06:08:12;;;;;;;15.90;9.00;;;;;;;6.70;100.00;99640.21;100582;1339;23204;-32
2022/11/01 06:10:38;;;;;;;16.10;10.50;;;;;;;6.72;100.00;99638.02;100579;1336;22748;-32
2022/11/01 06:13:03;;;;;;;31.40;15.40;;;;;;;6.76;100.00;99631.53;100501;1341;22877;-33
2022/11/01 06:15:29;;;;;;;23.90;14.10;;;;;;;6.82;100.00;99626.81;100642;1341;22888;-32
2022/11/01 06:17:56;;;;;;;25.60;14.10;;;;;;;6.85;100.00;99620.23;100623;1337;22774;-33
2022/11/01 06:20:22;;;;;;;24.20;13.60;;;;;;;6.88;100.00;99614.39;100598;1333;22531;-35
2022/11/01 06:22:47;;;;;;;30.60;15.90;;;;;;;6.90;100.00;99618.79;100453;1341;22509;-33
2022/11/01 06:25:13;;;;;;;27.00;11.20;;;;;;;6.92;100.00;99620.53;100583;1334;24322;-36
2022/11/01 06:27:38;;;;;;;27.40;11.30;;;;;;;6.94;100.00;99620.52;100597;1339;24401;-33
2022/11/01 06:30:05;;;;;;;25.70;13.00;;;;;;;6.95;100.00;99618.09;100580;1341;22952;-35
2022/11/01 06:32:30;;;;;;;18.30;10.70;;;;;;;6.96;100.00;99619.63;100560;1333;23054;-35
2022/11/01 06:34:55;;;;;;;15.30;10.50;;;;;;;6.96;100.00;99619.43;100473;1337;24701;-33
2022/11/01 06:37:21;;;;;;;20.50;12.60;;;;;;;7.00;100.00;99628.16;100604;1339;24354;-35
2022/11/01 06:39:46;;;;;;;32.80;14.80;;;;;;;7.07;100.00;99627.99;100619;1341;22748;-33
2022/11/01 06:42:12;;;;;;;21.40;11.90;;;;;;;7.14;100.00;99633.63;100623;1333;24476;-33
2022/11/01 06:44:37;;;;;;;35.50;17.60;;;;;;;7.22;100.00;99640.07;100572;1341;24364;-35
2022/11/01 06:47:03;;;;;;;31.30;15.00;;;;;;;7.32;100.00;99645.39;100567;1340;24360;-35
2022/11/01 06:49:29;;;;;;;25.20;13.10;;;;;;;7.42;100.00;99654.64;100661;1341;25390;-35
2022/11/01 06:51:54;;;;;;;39.40;15.90;;;;;;;7.54;100.00;99658.08;100633;1333;24339;-35
2022/11/01 06:54:21;;;;;;;22.20;10.60;;;;;;;7.65;100.00;99661.22;100590;1341;24341;-35
2022/11/01 06:56:46;;;;;;;30.00;11.70;;;;;;;7.76;100.00;99660.99;100594;1334;24445;-33
2022/11/01 06:59:13;;;;;;;23.30;13.20;;;;;;;7.87;100.00;99659.02;100593;1322;24396;-33
2022/11/01 07:01:39;;;;;;;33.50;16.00;;;;;;;8.01;100.00;99657.77;100639;1333;22505;-34
2022/11/01 07:04:04;;;;;;;23.50;10.70;;;;;;;8.11;100.00;99650.93;100548;1333;24389;-37
2022/11/01 07:06:30;;;;;;;24.30;12.90;;;;;;;8.20;100.00;99643.50;100585;1332;24170;-36
2022/11/01 07:08:57;;;;;;;39.40;15.20;;;;;;;8.31;100.00;99643.51;100616;1341;23112;-34
2022/11/01 07:11:23;;;;;;;25.60;14.90;;;;;;;8.39;100.00;99643.28;100573;1339;22663;-33
2022/11/01 07:13:49;;;;;;;17.60;11.50;;;;;;;8.47;100.00;99647.02;100599;1334;23342;-34
2022/11/01 07:16:14;;;;;;;23.60;11.70;;;;;;;8.54;100.00;99642.77;100577;1339;24326;-36
2022/11/01 07:18:40;;;;;;;26.00;13.80;;;;;;;8.59;100.00;99637.41;100604;1341;24297;-36
2022/11/01 07:21:06;;;;;;;24.90;13.60;;;;;;;8.67;100.00;99633.66;100513;1341;22625;-34
2022/11/01 07:23:31;;;;;;;21.20;12.50;;;;;;;8.77;100.00;99628.02;100615;1326;22898;-38
2022/11/01 07:25:57;;;;;;;;;;;;;;;8.93;100.00;99646.70;100599;1337;24383;-35
2022/11/01 07:28:23;;;;;;;25.70;13.20;;;;;;;9.14;100.00;99672.41;100612;1341;25630;-39
2022/11/01 07:30:49;;;;;;;17.60;11.30;;;;;;;9.39;100.00;99689.16;100643;1341;22925;-37
2022/11/01 07:33:15;;;;;;;16.30;7.70;;;;;;;9.64;100.00;99692.78;100594;1339;22834;-35
2022/11/01 07:35:41;;;;;;;24.10;14.10;;;;;;;9.90;100.00;99681.73;100651;1334;24292;-35
2022/11/01 07:38:07;;;;;;;17.70;10.80;;;;;;;10.15;100.00;99676.70;100598;1336;24942;-37
2022/11/01 07:40:34;;;;;;;16.40;10.10;;;;;;;10.43;100.00;99664.56;100634;1337;23106;-35
2022/11/01 07:43:00;;;;;;;17.70;10.40;;;;;;;10.70;100.00;99644.77;100643;1336;23264;-35
2022/11/01 07:45:26;;;;;;;15.10;9.80;;;;;;;10.82;100.00;99639.70;100590;1341;22807;-35
2022/11/01 07:47:52;;;;;;;15.30;11.80;;;;;;;10.87;100.00;99630.22;100568;1341;22772;-37
2022/11/01 07:50:18;;;;;;;10.50;7.00;;;;;;;10.80;100.00;99615.35;100639;1341;22974;-37
2022/11/01 07:52:44;;;;;;;15.20;9.50;;;;;;;10.92;100.00;99625.20;100645;1340;23158;-36
2022/11/01 07:55:10;;;;;;;9.20;6.70;;;;;;;10.89;100.00;99623.41;100679;1333;22867;-36
2022/11/01 07:57:37;;;;;;;12.10;7.30;;;;;;;10.77;100.00;99604.73;100580;1341;24881;-32
2022/11/01 08:00:04;;;;;;;7.80;6.90;;;;;;;10.80;100.00;99616.19;100596;1337;24285;-36
2022/11/01 08:02:29;;;;;;;7.10;6.00;;;;;;;10.75;100.00;99622.96;100548;1341;23334;-36
2022/11/01 08:04:55;;;;;;;3.00;2.60;;;;;;;10.78;100.00;99620.91;100587;1341;24467;-36
2022/11/01 08:07:20;;;;;;;4.00;3.20;;;;;;;10.82;100.00;99609.09;100471;1341;23189;-33
2022/11/01 08:09:46;;;;;;;7.80;5.60;;;;;;;10.84;100.00;99607.70;100551;1334;23107;-36
2022/11/01 08:12:13;;;;;;;9.30;5.80;;;;;;;10.81;100.00;99591.83;100581;1337;22502;-33
2022/11/01 08:14:38;;;;;;;9.10;6.20;;;;;;;10.94;100.00;99610.73;100558;1340;23240;-33
2022/11/01 08:17:04;;;;;;;5.60;4.90;;;;;;;11.28;100.00;99600.92;100658;1335;22765;-34
2022/11/01 08:19:29;;;;;;;7.80;4.00;;;;;;;11.36;100.00;99567.55;100643;1341;22774;-35
2022/11/01 08:21:57;;;;;;;8.90;6.10;;;;;;;11.71;100.00;99541.18;100534;1334;24462;-37
2022/11/01 08:24:23;;;;;;;4.90;3.50;;;;;;;11.81;100.00;99497.48;100667;1342;24420;-37
2022/11/01 08:26:48;;;;;;;5.30;3.00;;;;;;;12.06;100.00;99479.02;100628;1332;22864;-38
2022/11/01 08:29:14;;;;;;;5.00;4.20;;;;;;;12.06;100.00;99461.90;100560;1336;22738;-34
2022/11/01 08:31:40;;;;;;;6.40;4.50;;;;;;;12.29;100.00;99476.81;100660;1333;23120;-36
2022/11/01 08:34:06;;;;;;;5.20;3.20;;;;;;;12.61;100.00;99472.34;100590;1342;22765;-37
2022/11/01 08:36:32;;;;;;;3.40;2.90;;;;;;;12.70;100.00;99464.42;100626;1339;22871;-35
2022/11/01 08:38:59;;;;;;;5.10;4.30;;;;;;;12.87;100.00;99462.15;100599;1340;22844;-35
2022/11/01 08:41:27;;;;;;;3.10;2.40;;;;;;;13.01;100.00;99453.21;100599;1339;24497;-35
2022/11/01 08:43:53;;;;;;;5.20;2.90;;;;;;;12.85;100.00;99460.26;100577;1336;22748;-34
2022/11/01 08:46:19;;;;;;;4.10;2.60;;;;;;;13.15;100.00;99461.52;100633;1343;24408;-34
2022/11/01 08:48:46;;;;;;;6.10;3.40;;;;;;;13.59;100.00;99443.77;100621;1339;22754;-36
2022/11/01 08:51:12;;;;;;;3.60;2.10;;;;;;;13.39;100.00;99449.07;100533;1347;24569;-34
2022/11/01 08:53:37;;;;;;;3.60;2.70;;;;;;;13.79;100.00;99444.51;100613;1332;23247;-34
2022/11/01 08:56:03;;;;;;;8.20;3.50;;;;;;;13.83;100.00;99439.55;100499;1340;23234;-36
2022/11/01 08:58:29;;;;;;;6.60;4.00;;;;;;;13.78;100.00;99446.30;100632;1337;24586;-36
2022/11/01 09:00:54;;;;;;;1.20;1.10;;;;;;;13.93;99.97;99450.83;100675;1335;22520;-37
2022/11/01 09:03:20;;;;;;;3.30;2.40;;;;;;;13.99;98.94;99449.95;100567;1339;22544;-37
2022/11/01 09:05:45;;;;;;;5.00;2.20;;;;;;;13.83;100.00;99450.75;100622;1340;23105;-37
2022/11/01 09:08:11;;;;;;;3.90;2.60;;;;;;;14.11;100.00;99448.64;100585;1333;22922;-39
2022/11/01 09:10:36;;;;;;;5.10;2.40;;;;;;;14.24;100.00;99445.75;100528;1345;22889;-37
2022/11/01 09:13:02;;;;;;;9.70;3.40;;;;;;;14.29;99.46;99446.92;100548;1340;23226;-34
2022/11/01 09:15:27;;;;;;;3.30;2.60;;;;;;;14.28;99.84;99448.50;100586;1345;22801;-36
2022/11/01 09:17:53;;;;;;;2.90;2.30;;;;;;;14.41;100.00;99448.83;100578;1344;24299;-37
2022/11/01 09:20:18;;;;;;;4.80;2.20;;;;;;;14.63;97.09;99446.00;100520;1343;22688;-34
2022/11/01 09:22:44;;;;;;;3.30;2.40;;;;;;;14.21;95.75;99442.52;100611;1345;23050;-34
2022/11/01 09:25:10;;;;;;;4.30;2.30;;;;;;;14.53;95.24;99442.67;100494;1340;22850;-35
2022/11/01 09:27:35;;;;;;;3.00;1.90;;;;;;;14.35;96.17;99444.42;100551;1339;22751;-37
2022/11/01 09:30:03;;;;;;;8.20;2.30;;;;;;;14.54;95.26;99445.76;100592;1341;22755;-36
2022/11/01 09:32:28;;;;;;;16.60;3.10;;;;;;;14.15;94.16;99453.14;100624;1340;22734;-36
2022/11/01 09:34:54;;;;;;;4.30;2.30;;;;;;;13.95;95.14;99457.92;100477;1346;22708;-35
2022/11/01 09:37:19;;;;;;;5.50;3.40;;;;;;;14.42;92.61;99448.98;100589;1337;22894;-38
2022/11/01 09:39:45;;;;;;;3.20;2.40;;;;;;;14.34;92.06;99442.15;100612;1334;23233;-36
2022/11/01 09:42:17;;;;;;;4.10;2.80;;;;;;;14.16;93.71;99436.60;100578;1334;23100;-36
2022/11/01 09:44:44;;;;;;;7.40;2.30;;;;;;;14.25;94.52;99438.94;100531;1345;22510;-37
2022/11/01 09:47:13;;;;;;;5.40;2.60;;;;;;;14.71;92.34;99441.89;100604;1346;24794;-36
2022/11/01 09:49:39;;;;;;;3.70;2.90;;;;;;;14.90;90.17;99445.55;100546;1339;22896;-34
2022/11/01 09:52:05;;;;;;;3.70;2.70;;;;;;;14.87;91.01;99446.86;100626;1341;22661;-36
2022/11/01 09:54:31;;;;;;;10.30;2.80;;;;;;;15.37;87.13;99447.57;100566;1347;23235;-35
2022/11/01 09:57:03;;;;;;;3.10;1.40;;;;;;;15.23;88.33;99445.83;100550;1339;22842;-34
2022/11/01 09:59:36;;;;;;;3.30;1.60;;;;;;;15.25;88.46;99440.84;100539;1341;22992;-36
2022/11/01 10:02:17;;;;;;;9.00;3.40;;;;;;;15.60;89.34;99439.79;100593;1332;26011;-36
2022/11/01 10:04:49;;;;;;;7.60;2.50;;;;;;;15.93;86.25;99435.04;100511;1347;24399;-35
2022/11/01 10:07:18;;;;;;;8.60;2.80;;;;;;;16.13;84.71;99437.38;100636;1337;24487;-37
2022/11/01 10:09:49;;;;;;;6.10;2.80;;;;;;;16.29;85.20;99434.57;100656;1337;23261;-37
2022/11/01 10:12:24;;;;;;;9.20;3.00;;;;;;;16.46;84.65;99448.34;100618;1336;23164;-35
2022/11/01 10:14:59;;;;;;;1.60;1.20;;;;;;;16.73;80.92;99449.98;100587;1345;23279;-35
2022/11/01 10:17:32;;;;;;;4.40;2.40;;;;;;;16.95;78.95;99450.02;100574;1346;23249;-35
2022/11/01 10:19:57;;;;;;;7.30;6.40;;;;;;;16.88;79.75;99451.74;100622;1344;22537;-35
2022/11/01 10:22:29;;;;;;;5.60;3.30;;;;;;;17.03;77.99;99446.88;100551;1345;22500;-37
2022/11/01 10:24:57;;;;;;;12.20;2.20;;;;;;;16.80;77.35;99450.92;100644;1345;22510;-37
2022/11/01 10:27:30;;;;;;;6.60;3.10;;;;;;;16.77;77.39;99452.48;100584;1335;24365;-38
2022/11/01 10:30:01;;;;;;;4.80;2.40;;;;;;;16.81;76.96;99458.48;100630;1345;22506;-34
2022/11/01 10:32:29;;;;;;;4.90;2.50;;;;;;;16.62;75.68;99455.18;100480;1345;24311;-37
2022/11/01 10:34:58;;;;;;;4.10;1.20;;;;;;;16.74;75.06;99458.11;100583;1335;22888;-37
2022/11/01 10:37:27;;;;;;;5.30;3.10;;;;;;;16.35;75.39;99453.15;100640;1340;22508;-34
2022/11/01 10:39:55;;;;;;;2.40;1.60;;;;;;;16.05;77.22;99455.86;100637;1339;22522;-34
2022/11/01 10:42:21;;;;;;;5.20;2.90;;;;;;;16.29;76.65;99454.48;100533;1339;22636;-37
2022/11/01 10:44:53;;;;;;;4.20;2.90;;;;;;;16.47;76.64;99451.84;100599;1340;24591;-34
2022/11/01 10:47:20;;;;;;;4.50;1.90;;;;;;;16.81;76.36;99449.37;100465;1339;22892;-34
2022/11/01 10:49:52;;;;;;;5.00;2.30;;;;;;;16.85;74.46;99459.38;100605;1334;22874;-37
2022/11/01 10:52:20;;;;;;;8.20;2.00;;;;;;;16.77;73.56;99456.64;100551;1344;22876;-37
2022/11/01 10:54:46;;;;;;;5.00;3.50;;;;;;;16.98;74.10;99453.94;100651;1346;22632;-38
2022/11/01 10:57:16;;;;;;;2.60;1.80;;;;;;;17.15;71.99;99445.73;100639;1346;24362;-34
2022/11/01 10:59:45;;;;;;;3.90;3.00;;;;;;;16.82;72.95;99445.75;100624;1345;24372;-34
2022/11/01 11:02:20;;;;;;;11.50;2.50;;;;;;;16.90;73.86;99444.13;100509;1344;24372;-35
2022/11/01 11:04:47;;;;;;;5.50;3.10;;;;;;;16.93;72.97;99444.64;100570;1341;22761;-34
2022/11/01 11:07:13;;;;;;;4.20;2.50;;;;;;;17.03;72.58;99442.76;100596;1341;23293;-35
2022/11/01 11:09:38;;;;;;;6.50;3.00;;;;;;;17.12;72.67;99445.58;100545;1336;25784;-36
2022/11/01 11:12:09;;;;;;;3.00;2.20;;;;;;;16.92;72.43;99452.11;100595;1334;24367;-35
2022/11/01 11:14:35;;;;;;;4.70;2.20;;;;;;;16.94;73.37;99453.89;100590;1344;24330;-34
2022/11/01 11:17:01;;;;;;;6.80;2.40;;;;;;;16.91;72.93;99455.66;100604;1332;24415;-36